Martin Explorer — WDB3168 — position and weather

sailwx.info

Track history (hours):
 
Tides and Currents Weather Stations Pressure Air Temp Water Temp Dewpoint Dewpoint Depression Visibility Wind Speed Wind Dir Waves Ship Positions

Martin Explorer

Owner: CF Martin Sulphur LP, La Porte, TX. More information available from US FCC via Universal Licensing System and Coast Guard Vessel Documentation Center.

Last reported at 2018-Jan-09 17:55 UTC. Time now 2018-Jan-19 15:26 UTC.
Position N 27°37' W 082°40'.
Warning: this ship's position is 9 days out of date.

Length 158 m; draft 7.3 m.

Type: Towing. MMSI: 366884140.

Date/timePositionNaut miles runAvg speedWind from/ knotsBaromVisibWave heightAir tempDewpointWater temp
2018-Jan-09 17:55N 27°37' W 082°40'511.7
2018-Jan-09 17:27N 27°41' W 082°35'511.4
2018-Jan-09 17:01N 27°45' W 082°32'510.1
2018-Jan-09 16:31N 27°48' W 082°28'611.2
2018-Jan-09 16:00N 27°54' W 082°26'1 2.9
2018-Jan-09 15:31N 27°54' W 082°25'0 0.2
2018-Jan-09 14:58N 27°54' W 082°25'0 0.0
2018-Jan-09 14:28N 27°54' W 082°25'0 0.0
2018-Jan-09 13:58N 27°54' W 082°25'0 0.0
2018-Jan-09 13:31N 27°54' W 082°25'0 0.0
2018-Jan-09 13:01N 27°54' W 082°25'0 0.0
2018-Jan-09 12:31N 27°54' W 082°25'0 0.0
2018-Jan-09 12:00N 27°54' W 082°25'0 0.0
2018-Jan-09 11:30N 27°54' W 082°25'0 0.0
2018-Jan-09 11:00N 27°54' W 082°25'0 0.0
2018-Jan-09 10:30N 27°54' W 082°25'0 0.0
2018-Jan-09 09:54N 27°54' W 082°25'0 0.0
2018-Jan-09 09:27N 27°54' W 082°25'0 0.0
2018-Jan-09 09:00N 27°54' W 082°25'0 0.0
2018-Jan-09 08:30N 27°54' W 082°25'0 0.0
2018-Jan-09 08:00N 27°54' W 082°25'0 0.0
2018-Jan-09 07:30N 27°54' W 082°25'0 0.0
2018-Jan-09 07:00N 27°54' W 082°25'0 0.0
2018-Jan-09 06:24N 27°54' W 082°25'0 0.0
2018-Jan-09 06:00N 27°54' W 082°25'0 0.0
2018-Jan-09 05:27N 27°54' W 082°25'0 0.0
2018-Jan-09 05:00N 27°54' W 082°25'0 0.0
2018-Jan-09 04:30N 27°54' W 082°25'0 0.0
2018-Jan-09 04:00N 27°54' W 082°25'0 0.0
2018-Jan-09 03:30N 27°54' W 082°25'0 0.0
2018-Jan-09 03:00N 27°54' W 082°25'2 3.0
2018-Jan-09 02:30N 27°54' W 082°26'6 9.3
2018-Jan-09 01:55N 27°48' W 082°27'4 9.4
2018-Jan-09 01:30N 27°47' W 082°31'  
2017-Dec-31 01:36N 27°41' W 092°25'111.3
2017-Dec-31 01:30N 27°41' W 092°23'611.5
2017-Dec-31 01:00N 27°41' W 092°17'611.9
2017-Dec-31 00:30N 27°41' W 092°10'611.7
2017-Dec-30 23:59N 27°41' W 092°03'  
Track history (hours):
 
Tides and Currents Weather Stations Pressure Air Temp Water Temp Dewpoint Dewpoint Depression Visibility Wind Speed Wind Dir Waves Ship Positions

Martin Explorer

Owner: CF Martin Sulphur LP, La Porte, TX. More information available from US FCC via Universal Licensing System and Coast Guard Vessel Documentation Center.

Last reported at 2018-Jan-09 17:55 UTC. Time now 2018-Jan-19 15:26 UTC.
Position N 27°37' W 082°40'.
Warning: this ship's position is 9 days out of date.

Length 158 m; draft 7.3 m.

Type: Towing. MMSI: 366884140.

Date/timePositionNaut miles runAvg speedWind from/ knotsBaromVisibWave heightAir tempDewpointWater temp
2018-Jan-09 17:55N 27°37' W 082°40'511.7
2018-Jan-09 17:27N 27°41' W 082°35'511.4
2018-Jan-09 17:01N 27°45' W 082°32'510.1
2018-Jan-09 16:31N 27°48' W 082°28'611.2
2018-Jan-09 16:00N 27°54' W 082°26'1 2.9
2018-Jan-09 15:31N 27°54' W 082°25'0 0.2
2018-Jan-09 14:58N 27°54' W 082°25'0 0.0
2018-Jan-09 14:28N 27°54' W 082°25'0 0.0
2018-Jan-09 13:58N 27°54' W 082°25'0 0.0
2018-Jan-09 13:31N 27°54' W 082°25'0 0.0
2018-Jan-09 13:01N 27°54' W 082°25'0 0.0
2018-Jan-09 12:31N 27°54' W 082°25'0 0.0
2018-Jan-09 12:00N 27°54' W 082°25'0 0.0
2018-Jan-09 11:30N 27°54' W 082°25'0 0.0
2018-Jan-09 11:00N 27°54' W 082°25'0 0.0
2018-Jan-09 10:30N 27°54' W 082°25'0 0.0
2018-Jan-09 09:54N 27°54' W 082°25'0 0.0
2018-Jan-09 09:27N 27°54' W 082°25'0 0.0
2018-Jan-09 09:00N 27°54' W 082°25'0 0.0
2018-Jan-09 08:30N 27°54' W 082°25'0 0.0
2018-Jan-09 08:00N 27°54' W 082°25'0 0.0
2018-Jan-09 07:30N 27°54' W 082°25'0 0.0
2018-Jan-09 07:00N 27°54' W 082°25'0 0.0
2018-Jan-09 06:24N 27°54' W 082°25'0 0.0
2018-Jan-09 06:00N 27°54' W 082°25'0 0.0
2018-Jan-09 05:27N 27°54' W 082°25'0 0.0
2018-Jan-09 05:00N 27°54' W 082°25'0 0.0
2018-Jan-09 04:30N 27°54' W 082°25'0 0.0
2018-Jan-09 04:00N 27°54' W 082°25'0 0.0
2018-Jan-09 03:30N 27°54' W 082°25'0 0.0
2018-Jan-09 03:00N 27°54' W 082°25'2 3.0
2018-Jan-09 02:30N 27°54' W 082°26'6 9.3
2018-Jan-09 01:55N 27°48' W 082°27'4 9.4
2018-Jan-09 01:30N 27°47' W 082°31'  
2017-Dec-31 01:36N 27°41' W 092°25'111.3
2017-Dec-31 01:30N 27°41' W 092°23'611.5
2017-Dec-31 01:00N 27°41' W 092°17'611.9
2017-Dec-31 00:30N 27°41' W 092°10'611.7
2017-Dec-30 23:59N 27°41' W 092°03'  

Dump ship's entire track history